Aeroporto :
LOGIN :

Iscrizione | Disclaimer

   EN    FR    IT 

 










Sommario :    VFR   VFR Marginale   IFR   IFR Intensivo   IFR Molto Intensivo
Visibilità : 
Base nubi : 
>= 8 km
>= 3000ft
5 / 8 km
1000 / 3000 ft
1500m / 5 km
500 / 1000 ft
800 / 1500m
200 / 500 ft
< 800m
< 200 ft
Simboli :   Temporali  Nebbia  Neve Forte  Precipitazioni Forti  Vento > 20 kt
SIGMETs :   Varie  Temporali  Ghiacco  Turbolenza  Onda orograficha  Ceneri Vulcaniche






- Altitudine del aeroporto : 13 ft
- Codice IATA : OST


EBOS - Oostend bruges Int.

ULTIMO METAR :
  • 180250Z 09011KT 1500 BR FEW020 18/17 Q1012 TEMPO 3000 BR

METARs OBSOLETI :
  • 180220Z 10008KT 1500 BR FEW020 18/17 Q1013 TEMPO 3000 BR
  • 180150Z 08005KT 1500 -SHRA BR SCT020TCU BKN045 18/17 Q1013 TEMPO 3000 -SHRA
  • 180120Z 08008KT 1500 SHRA BR SCT020TCU BKN045 18/16 Q1014 TEMPO 6000 -SHRA
  • 180050Z 08009KT 1800 SHRA BR SCT020TCU BKN045 18/17 Q1014 TEMPO 6000 -SHRA
  • 180020Z 10005KT 070V170 2000 SHRA BR FEW026TCU SCT045 18/17 Q1014 TEMPO 6000 NSW

TAF TAF EBOS
Valido dal 18 a 00 ore il 19 a 06 ore UTC


172310Z 1800/1906 04009KT 9999 FEW040CB SCT045
PROB40
TEMPO 1800/1806 VRB20G35KT 3000 SHRA TSRA
PROB30 1800/1806 SCT004 BKN006
BECMG 1808/1810 10011KT
BECMG 1811/1814 19017KT
PROB30 1821/1906 BKN014
BECMG 1823/1902 27011KT



MetMap, La meteo Aeronautica in un colpo d'occhio ! - Copyright ORBIFLY Dicembre 2007 - Disclaimer

ORBIFLY MET'MAP TEAM :

Programmazione e sviluppo : Alexandra Zaïnal
Concezione : Baudouin d'Aumeries
Aiuto per la programmazione : Marc-Olivier Méhu
Supporto tecnico e logistico : Manuel Goepfert
Aiuto per la traduzione : Arnaldo La Scala

Contatto : metmap@orbifly.com




FONTI E CREDITI :

   NOAA